York Harbor, Maine
Current Conditions -  °F | °C
As of 8:58 PM on Saturday 20 Dec 2014 (Local Time) from KPSM Reporting Station
Broken Clouds Broken Clouds  
Wind Chill: 25°   Ceiling: 3600
Heat Index: 30°   Visibility: 10mi
Dew Point: 22°   Wind: 6mph
Humidity: 72%   Direction: 30°NNE
Pressure: 30.33"   Gusts: NA
Location:  43.14°N, 70.65°W
Report Text: KPSM 210158Z 03005KT 10SM BKN036 M01/M05 A3033 RMK AO2A SLP275 T10091053
Loading
Personal Weather Stations






























Interactive Weather Map New forecast layout! Learn more

10-Day Weather Forecast

Advertisements
Track Severe Weather on mobile